createdAt,value
2023-03-26T00:00:21.585Z,8.29
2023-03-26T00:02:44.218Z,8.39
2023-03-26T00:05:09.212Z,8.52
2023-03-26T00:07:31.959Z,8.60
2023-03-26T00:09:55.854Z,8.69
2023-03-26T00:12:18.761Z,8.70
2023-03-26T00:14:41.394Z,8.70
2023-03-26T00:17:04.458Z,8.76
2023-03-26T00:19:27.923Z,8.76
2023-03-26T00:21:51.657Z,8.71
2023-03-26T00:24:17.873Z,8.67
2023-03-26T00:26:41.300Z,8.67
2023-03-26T00:29:04.349Z,8.70
2023-03-26T00:31:27.938Z,8.66
2023-03-26T00:33:55.861Z,8.63
2023-03-26T00:36:20.118Z,8.63
2023-03-26T00:38:44.265Z,8.64
2023-03-26T00:41:17.995Z,8.73
2023-03-26T00:43:41.330Z,8.70
2023-03-26T00:46:04.281Z,8.67
2023-03-26T00:48:43.883Z,8.73
2023-03-26T00:51:08.900Z,8.74
2023-03-26T00:53:32.092Z,8.70
2023-03-26T00:56:00.388Z,8.67
2023-03-26T00:58:23.220Z,8.63
2023-03-26T01:00:58.471Z,8.60
2023-03-26T01:03:27.621Z,8.57
2023-03-26T01:05:57.349Z,8.57
2023-03-26T01:08:31.378Z,8.56
2023-03-26T01:11:02.843Z,8.52
2023-03-26T01:13:25.595Z,8.48
2023-03-26T01:15:51.313Z,8.45
2023-03-26T01:18:14.192Z,8.41
2023-03-26T01:20:46.706Z,8.41
2023-03-26T01:23:09.734Z,8.38
2023-03-26T01:25:38.282Z,8.28
2023-03-26T01:28:01.148Z,8.24
2023-03-26T01:31:12.965Z,8.15
2023-03-26T01:33:41.664Z,8.15
2023-03-26T01:36:17.078Z,8.05
2023-03-26T01:39:18.834Z,7.95
2023-03-26T01:41:51.287Z,7.87
2023-03-26T01:44:25.941Z,7.78
2023-03-26T01:46:49.719Z,7.74
2023-03-26T01:49:15.417Z,7.73
2023-03-26T01:51:38.618Z,7.70
2023-03-26T01:54:04.287Z,7.67
2023-03-26T01:56:35.921Z,7.67
2023-03-26T01:59:08.753Z,7.74
2023-03-26T02:01:55.005Z,7.73
2023-03-26T02:04:37.720Z,7.71
2023-03-26T02:07:09.608Z,7.67
2023-03-26T02:09:37.953Z,7.71
2023-03-26T02:12:03.764Z,7.73
2023-03-26T02:14:30.086Z,7.76
2023-03-26T02:16:52.765Z,7.78
2023-03-26T02:19:21.542Z,7.71
2023-03-26T02:21:45.982Z,7.74
2023-03-26T02:24:09.356Z,7.69
2023-03-26T02:26:35.414Z,7.77
2023-03-26T02:29:20.623Z,7.81
2023-03-26T02:31:44.382Z,7.80
2023-03-26T02:34:07.076Z,7.74
2023-03-26T02:36:32.784Z,7.66
2023-03-26T02:39:01.688Z,7.64
2023-03-26T02:41:27.726Z,7.64
2023-03-26T02:43:54.968Z,7.59
2023-03-26T02:46:21.768Z,7.64
2023-03-26T02:48:54.727Z,7.56
2023-03-26T02:51:21.286Z,7.47
2023-03-26T02:53:55.207Z,7.35
2023-03-26T02:56:41.324Z,7.42
2023-03-26T02:59:39.550Z,7.45
2023-03-26T03:02:24.398Z,7.46
2023-03-26T03:04:49.787Z,7.45
2023-03-26T03:07:14.534Z,7.43
2023-03-26T03:09:38.202Z,7.39
2023-03-26T03:12:38.692Z,7.33
2023-03-26T03:15:01.458Z,7.29
2023-03-26T03:17:25.254Z,7.25
2023-03-26T03:19:47.926Z,7.16
2023-03-26T03:22:11.013Z,7.08
2023-03-26T03:24:34.133Z,7.11
2023-03-26T03:26:58.031Z,7.05
2023-03-26T03:29:34.342Z,7.09
2023-03-26T03:32:15.965Z,6.99
2023-03-26T03:34:42.516Z,6.77
2023-03-26T03:37:05.992Z,6.74
2023-03-26T03:39:37.678Z,6.74
2023-03-26T03:42:00.839Z,6.84
2023-03-26T03:44:23.673Z,6.85
2023-03-26T03:46:49.179Z,6.83
2023-03-26T03:49:11.991Z,6.90
2023-03-26T03:51:35.357Z,6.87
2023-03-26T03:54:08.647Z,6.85
2023-03-26T03:56:40.420Z,6.81
2023-03-26T03:59:12.899Z,6.83
2023-03-26T04:01:35.778Z,6.77
2023-03-26T04:04:03.817Z,6.78
2023-03-26T04:06:52.775Z,6.81
2023-03-26T04:09:16.069Z,6.77
2023-03-26T04:11:41.296Z,6.74
2023-03-26T04:14:22.787Z,6.76
2023-03-26T04:16:53.301Z,6.64
2023-03-26T04:19:16.310Z,6.67
2023-03-26T04:21:39.397Z,6.71
2023-03-26T04:24:02.602Z,6.74
2023-03-26T04:27:04.262Z,6.69
2023-03-26T04:29:42.947Z,6.57
2023-03-26T04:32:26.645Z,6.63
2023-03-26T04:34:50.715Z,6.69
2023-03-26T04:37:22.507Z,6.74
2023-03-26T04:39:56.051Z,6.70
2023-03-26T04:42:34.717Z,6.70
2023-03-26T04:45:05.854Z,6.58
2023-03-26T04:47:29.142Z,6.57
2023-03-26T04:49:52.135Z,6.60
2023-03-26T04:52:15.706Z,6.54
2023-03-26T04:55:38.454Z,6.53
2023-03-26T04:58:14.079Z,6.64
2023-03-26T05:00:49.746Z,6.66
2023-03-26T05:03:21.179Z,6.77
2023-03-26T05:05:44.897Z,6.94
2023-03-26T05:08:07.720Z,6.97
2023-03-26T05:10:30.859Z,7.15
2023-03-26T05:12:59.223Z,7.40
2023-03-26T05:15:29.410Z,7.70
2023-03-26T05:18:09.048Z,8.06
2023-03-26T05:20:43.565Z,9.28
2023-03-26T05:23:08.113Z,10.66
2023-03-26T05:25:39.906Z,11.14
2023-03-26T05:28:11.060Z,11.03
2023-03-26T05:30:53.416Z,10.73
2023-03-26T05:33:17.845Z,10.52
2023-03-26T05:35:49.537Z,10.28
2023-03-26T05:38:12.332Z,10.20
2023-03-26T05:40:35.104Z,10.14
2023-03-26T05:42:59.491Z,10.27
2023-03-26T05:45:31.504Z,10.21
2023-03-26T05:47:57.294Z,10.41
2023-03-26T05:50:22.135Z,10.59
2023-03-26T05:52:45.902Z,10.75
2023-03-26T05:55:27.768Z,11.54
2023-03-26T05:58:09.131Z,13.09
2023-03-26T06:01:10.320Z,14.13
2023-03-26T06:03:56.795Z,14.94
2023-03-26T06:06:23.109Z,14.87
2023-03-26T06:09:01.989Z,14.44
2023-03-26T06:11:32.388Z,14.32
2023-03-26T06:13:56.510Z,14.22
2023-03-26T06:16:26.207Z,13.53
2023-03-26T06:19:03.540Z,13.22
2023-03-26T06:21:45.051Z,13.48
2023-03-26T06:24:16.601Z,14.26
2023-03-26T06:26:57.680Z,14.61
2023-03-26T06:29:53.514Z,14.39
2023-03-26T06:32:29.538Z,13.53
2023-03-26T06:35:06.426Z,13.06
2023-03-26T06:37:29.138Z,13.27
2023-03-26T06:39:56.551Z,13.43
2023-03-26T06:43:08.927Z,13.97
2023-03-26T06:45:30.392Z,14.25
2023-03-26T06:48:31.445Z,14.55
2023-03-26T06:51:10.170Z,14.97
2023-03-26T06:53:51.631Z,16.00
2023-03-26T06:56:32.992Z,16.24
2023-03-26T06:59:09.390Z,16.58
2023-03-26T07:01:50.556Z,16.88
2023-03-26T07:04:32.176Z,15.80
2023-03-26T07:07:14.351Z,14.87
2023-03-26T07:10:00.420Z,13.84
2023-03-26T07:12:53.602Z,13.77
2023-03-26T07:15:16.612Z,13.47
2023-03-26T07:17:48.408Z,13.85
2023-03-26T07:20:17.423Z,13.64
2023-03-26T07:22:41.513Z,14.85
2023-03-26T07:25:23.507Z,15.97
2023-03-26T07:28:20.952Z,17.00
2023-03-26T07:31:30.568Z,18.06
2023-03-26T07:34:51.940Z,18.13
2023-03-26T07:37:56.214Z,18.81
2023-03-26T07:41:00.225Z,17.52
2023-03-26T07:44:19.308Z,16.91
2023-03-26T07:47:04.844Z,16.55
2023-03-26T07:49:29.488Z,16.58
2023-03-26T07:52:15.994Z,16.51
2023-03-26T07:54:50.562Z,16.28
2023-03-26T07:58:10.265Z,16.24
2023-03-26T08:01:21.995Z,16.11
2023-03-26T08:03:44.974Z,16.11
2023-03-26T08:06:36.280Z,15.98
2023-03-26T08:09:31.017Z,15.98
2023-03-26T08:12:27.729Z,15.98
2023-03-26T08:15:09.108Z,16.12
2023-03-26T08:17:48.135Z,16.17
2023-03-26T08:20:28.416Z,15.90
2023-03-26T08:22:59.538Z,15.96
2023-03-26T08:25:33.275Z,16.29
2023-03-26T08:27:58.935Z,16.32
2023-03-26T08:30:26.784Z,16.60
2023-03-26T08:32:56.360Z,16.67
2023-03-26T08:35:19.222Z,17.07
2023-03-26T08:37:45.425Z,17.06
2023-03-26T08:40:09.525Z,16.83
2023-03-26T08:43:07.332Z,16.73
2023-03-26T08:46:03.710Z,16.66
2023-03-26T08:48:51.254Z,16.72
2023-03-26T08:51:41.623Z,16.75
2023-03-26T08:54:04.476Z,17.04
2023-03-26T08:56:49.373Z,17.28
2023-03-26T08:59:39.836Z,17.71
2023-03-26T09:02:23.907Z,18.04
2023-03-26T09:04:58.448Z,18.26
2023-03-26T09:07:54.316Z,18.18
2023-03-26T09:10:41.673Z,17.94
2023-03-26T09:13:04.506Z,17.72
2023-03-26T09:15:42.418Z,17.15
2023-03-26T09:18:36.178Z,17.02
2023-03-26T09:21:22.325Z,17.02
2023-03-26T09:24:09.843Z,16.75
2023-03-26T09:27:11.338Z,16.83
2023-03-26T09:30:10.287Z,17.36
2023-03-26T09:32:54.501Z,17.30
2023-03-26T09:35:47.105Z,17.36
2023-03-26T09:38:27.713Z,17.82
2023-03-26T09:41:02.785Z,17.83
2023-03-26T09:44:09.952Z,17.45
2023-03-26T09:46:54.095Z,17.10
2023-03-26T09:49:46.251Z,17.25
2023-03-26T09:52:22.655Z,17.56
2023-03-26T09:54:46.507Z,17.68
2023-03-26T09:57:20.933Z,18.11
2023-03-26T09:59:52.016Z,18.38
2023-03-26T10:02:45.370Z,18.36
2023-03-26T10:05:47.294Z,18.48
2023-03-26T10:08:49.227Z,18.41
2023-03-26T10:11:22.709Z,18.43
2023-03-26T10:14:11.749Z,18.88
2023-03-26T10:16:41.016Z,18.95
2023-03-26T10:19:23.546Z,18.79
2023-03-26T10:22:05.119Z,18.75
2023-03-26T10:24:40.032Z,18.79
2023-03-26T10:27:08.482Z,18.89
2023-03-26T10:29:55.997Z,18.98
2023-03-26T10:32:56.350Z,18.93
2023-03-26T10:35:34.368Z,19.17
2023-03-26T10:38:16.128Z,19.38
2023-03-26T10:40:48.315Z,19.16
2023-03-26T10:43:25.859Z,19.10
2023-03-26T10:46:07.360Z,18.99
2023-03-26T10:48:35.762Z,18.57
2023-03-26T10:51:32.013Z,18.44
2023-03-26T10:54:01.771Z,18.75
2023-03-26T10:56:45.413Z,19.14
2023-03-26T10:59:13.326Z,19.16
2023-03-26T11:01:47.395Z,19.22
2023-03-26T11:04:31.122Z,19.28
2023-03-26T11:07:18.882Z,19.37
2023-03-26T11:10:08.068Z,19.22
2023-03-26T11:13:06.702Z,19.60
2023-03-26T11:15:42.905Z,19.85
2023-03-26T11:18:27.585Z,19.81
2023-03-26T11:21:18.891Z,19.79
2023-03-26T11:24:18.595Z,20.29
2023-03-26T11:26:52.933Z,20.40
2023-03-26T11:29:55.584Z,20.73
2023-03-26T11:32:27.284Z,20.64
2023-03-26T11:35:39.265Z,20.05
2023-03-26T11:38:08.071Z,19.89
2023-03-26T11:40:39.563Z,19.90
2023-03-26T11:43:06.539Z,19.49
2023-03-26T11:45:33.211Z,19.53
2023-03-26T11:48:17.127Z,19.57
2023-03-26T11:50:46.561Z,19.50
2023-03-26T11:53:16.299Z,19.40
2023-03-26T11:55:45.378Z,19.23
2023-03-26T11:58:27.879Z,18.75
2023-03-26T12:00:53.144Z,18.52
2023-03-26T12:03:16.369Z,18.51
2023-03-26T12:05:49.679Z,18.38
2023-03-26T12:08:22.388Z,18.26
2023-03-26T12:10:52.410Z,18.62
2023-03-26T12:13:21.299Z,18.93
2023-03-26T12:15:44.479Z,19.20
2023-03-26T12:18:41.118Z,19.34
2023-03-26T12:21:08.300Z,19.50
2023-03-26T12:23:58.504Z,19.44
2023-03-26T12:26:34.754Z,19.37
2023-03-26T12:29:03.538Z,19.50
2023-03-26T12:31:26.648Z,19.35
2023-03-26T12:34:13.584Z,19.00
2023-03-26T12:36:36.645Z,18.81
2023-03-26T12:39:16.731Z,18.95
2023-03-26T12:44:44.672Z,19.06
2023-03-26T12:44:49.091Z,19.03
2023-03-26T12:48:01.203Z,19.20
2023-03-26T12:50:14.685Z,18.85
2023-03-26T12:53:19.240Z,18.57
2023-03-26T12:55:53.838Z,18.71
2023-03-26T12:58:31.861Z,19.13
2023-03-26T13:01:15.976Z,19.40
2023-03-26T13:04:18.780Z,19.14
2023-03-26T13:06:59.095Z,19.09
2023-03-26T13:09:37.715Z,18.69
2023-03-26T13:12:57.996Z,18.41
2023-03-26T13:15:27.247Z,18.95
2023-03-26T13:18:07.540Z,19.23
2023-03-26T13:20:46.431Z,19.81
2023-03-26T13:23:24.056Z,19.86
2023-03-26T13:25:49.617Z,19.74
2023-03-26T13:28:22.681Z,19.64
2023-03-26T13:31:37.918Z,19.82
2023-03-26T13:34:12.688Z,19.79
2023-03-26T13:37:04.268Z,19.70
2023-03-26T13:39:50.191Z,19.95
2023-03-26T13:42:43.155Z,19.89
2023-03-26T13:45:27.350Z,20.00
2023-03-26T13:47:52.301Z,20.04
2023-03-26T13:50:25.129Z,20.06
2023-03-26T13:52:55.330Z,20.10
2023-03-26T13:55:23.709Z,19.99
2023-03-26T13:58:03.253Z,20.04
2023-03-26T14:00:34.134Z,19.89
2023-03-26T14:03:04.232Z,19.71
2023-03-26T14:05:42.666Z,19.54
2023-03-26T14:08:16.982Z,19.07
2023-03-26T14:10:54.603Z,18.68
2023-03-26T14:13:24.606Z,18.68
2023-03-26T14:15:55.387Z,18.76
2023-03-26T14:18:20.905Z,18.72
2023-03-26T14:21:16.682Z,18.59
2023-03-26T14:23:58.343Z,18.65
2023-03-26T14:26:48.381Z,18.59
2023-03-26T14:29:57.491Z,18.61
2023-03-26T14:32:35.157Z,18.57
2023-03-26T14:35:11.883Z,18.54
2023-03-26T14:37:52.945Z,18.45
2023-03-26T14:40:28.976Z,18.28
2023-03-26T14:42:53.014Z,18.13
2023-03-26T14:45:54.106Z,18.09
2023-03-26T14:48:51.952Z,18.27
2023-03-26T14:51:38.362Z,18.21
2023-03-26T14:54:08.747Z,18.37
2023-03-26T14:56:43.742Z,18.27
2023-03-26T14:59:40.322Z,18.21
2023-03-26T15:02:21.733Z,18.30
2023-03-26T15:05:08.370Z,18.33
2023-03-26T15:08:04.887Z,18.48
2023-03-26T15:11:21.055Z,18.68
2023-03-26T15:14:22.762Z,18.85
2023-03-26T15:17:16.212Z,18.93
2023-03-26T15:19:41.835Z,18.92
2023-03-26T15:22:16.426Z,18.82
2023-03-26T15:25:05.261Z,18.77
2023-03-26T15:27:52.365Z,18.59
2023-03-26T15:30:33.947Z,18.43
2023-03-26T15:33:22.756Z,18.33
2023-03-26T15:36:09.333Z,18.01
2023-03-26T15:38:32.095Z,17.79
2023-03-26T15:41:19.432Z,17.61
2023-03-26T15:44:24.893Z,17.51
2023-03-26T15:46:56.593Z,17.45
2023-03-26T15:50:20.836Z,17.41
2023-03-26T15:52:53.841Z,17.30
2023-03-26T15:55:16.837Z,17.27
2023-03-26T15:57:48.811Z,17.11
2023-03-26T16:00:26.326Z,16.96
2023-03-26T16:03:10.585Z,16.87
2023-03-26T16:05:37.350Z,16.83
2023-03-26T16:08:08.783Z,16.70
2023-03-26T16:10:44.758Z,16.56
2023-03-26T16:13:19.767Z,16.41
2023-03-26T16:15:44.025Z,16.31
2023-03-26T16:18:27.671Z,16.05
2023-03-26T16:21:32.082Z,15.86
2023-03-26T16:24:08.161Z,15.77
2023-03-26T16:26:59.507Z,15.59
2023-03-26T16:29:26.887Z,15.49
2023-03-26T16:32:05.750Z,15.42
2023-03-26T16:35:05.612Z,15.22
2023-03-26T16:37:50.068Z,15.08
2023-03-26T16:40:21.025Z,15.12
2023-03-26T16:43:17.846Z,14.99
2023-03-26T16:46:15.972Z,14.95
2023-03-26T16:49:00.007Z,14.88
2023-03-26T16:52:00.311Z,14.74
2023-03-26T16:54:36.559Z,14.74
2023-03-26T16:56:59.631Z,14.76
2023-03-26T16:59:46.912Z,14.66
2023-03-26T17:02:37.634Z,14.59
2023-03-26T17:05:12.596Z,14.51
2023-03-26T17:07:43.513Z,14.49
2023-03-26T17:10:08.904Z,14.47
2023-03-26T17:12:40.753Z,14.40
2023-03-26T17:15:27.391Z,14.34
2023-03-26T17:18:28.505Z,14.33
2023-03-26T17:21:03.581Z,14.37
2023-03-26T17:23:39.886Z,14.37
2023-03-26T17:26:42.429Z,14.37
2023-03-26T17:29:31.230Z,14.26
2023-03-26T17:32:15.138Z,14.32
2023-03-26T17:34:37.972Z,14.29
2023-03-26T17:37:04.551Z,14.28
2023-03-26T17:39:39.435Z,14.37
2023-03-26T17:42:16.412Z,14.30
2023-03-26T17:45:11.236Z,14.30
2023-03-26T17:47:45.455Z,14.32
2023-03-26T17:50:18.356Z,14.30
2023-03-26T17:52:58.262Z,14.25
2023-03-26T17:55:27.838Z,14.32
2023-03-26T17:58:03.538Z,14.41
2023-03-26T18:00:36.157Z,14.33
2023-03-26T18:03:06.477Z,14.34
2023-03-26T18:05:31.068Z,14.33
2023-03-26T18:08:16.500Z,14.32
2023-03-26T18:11:17.267Z,14.23
2023-03-26T18:14:12.251Z,14.16
2023-03-26T18:16:42.561Z,13.97
2023-03-26T18:19:19.197Z,14.00
2023-03-26T18:21:43.677Z,13.91
2023-03-26T18:24:15.676Z,13.86
2023-03-26T18:26:42.524Z,14.01
2023-03-26T18:29:25.689Z,13.85
2023-03-26T18:31:54.272Z,13.89
2023-03-26T18:34:21.091Z,13.88
2023-03-26T18:37:05.604Z,13.97
2023-03-26T18:39:29.148Z,14.11
2023-03-26T18:41:52.968Z,14.11
2023-03-26T18:44:18.740Z,14.19
2023-03-26T18:46:42.584Z,14.22
2023-03-26T18:49:07.054Z,14.15
2023-03-26T18:51:32.020Z,14.12
2023-03-26T18:54:06.726Z,14.20
2023-03-26T18:56:29.554Z,14.16
2023-03-26T18:58:52.935Z,14.20
2023-03-26T19:01:25.436Z,14.16
2023-03-26T19:03:49.900Z,14.16
2023-03-26T19:06:14.688Z,14.16
2023-03-26T19:08:39.127Z,14.16
2023-03-26T19:11:04.800Z,14.04
2023-03-26T19:13:28.471Z,14.04
2023-03-26T19:15:54.097Z,13.98
2023-03-26T19:18:21.931Z,13.97
2023-03-26T19:21:03.566Z,13.92
2023-03-26T19:23:32.343Z,13.79
2023-03-26T19:25:57.170Z,13.73
2023-03-26T19:28:24.011Z,13.74
2023-03-26T19:30:47.268Z,13.74
2023-03-26T19:33:18.718Z,13.64
2023-03-26T19:35:43.461Z,13.53
2023-03-26T19:38:27.168Z,13.55
2023-03-26T19:40:52.484Z,13.53
2023-03-26T19:43:16.008Z,13.54
2023-03-26T19:45:39.476Z,13.48
2023-03-26T19:48:45.292Z,13.43
2023-03-26T19:51:20.242Z,13.48
2023-03-26T19:53:46.844Z,13.48
2023-03-26T19:56:13.440Z,13.44
2023-03-26T19:58:37.225Z,13.50
2023-03-26T20:01:00.412Z,13.44
2023-03-26T20:03:38.184Z,13.36
2023-03-26T20:06:01.249Z,13.50
2023-03-26T20:08:27.285Z,13.58
2023-03-26T20:10:50.474Z,13.51
2023-03-26T20:13:17.765Z,13.48
2023-03-26T20:15:41.093Z,13.50
2023-03-26T20:18:04.155Z,13.39
2023-03-26T20:20:27.692Z,13.24
2023-03-26T20:22:51.779Z,13.19
2023-03-26T20:25:20.881Z,13.05
2023-03-26T20:27:44.724Z,13.00
2023-03-26T20:30:10.509Z,12.92
2023-03-26T20:32:38.581Z,12.91
2023-03-26T20:35:02.248Z,12.96
2023-03-26T20:37:25.031Z,13.03
2023-03-26T20:39:47.927Z,13.07
2023-03-26T20:42:12.482Z,13.10
2023-03-26T20:44:36.476Z,13.05
2023-03-26T20:46:59.493Z,12.98
2023-03-26T20:49:22.509Z,12.98
2023-03-26T20:51:45.755Z,12.98
2023-03-26T20:54:21.427Z,13.17
2023-03-26T20:56:45.688Z,13.42
2023-03-26T20:59:18.151Z,13.61
2023-03-26T21:01:41.589Z,13.73
2023-03-26T21:04:04.551Z,13.75
2023-03-26T21:06:27.263Z,13.81
2023-03-26T21:08:50.384Z,13.82
2023-03-26T21:11:51.775Z,13.71
2023-03-26T21:14:20.843Z,13.55
2023-03-26T21:16:43.777Z,13.48
2023-03-26T21:19:06.623Z,13.32
2023-03-26T21:21:59.555Z,13.13
2023-03-26T21:24:54.885Z,13.00
2023-03-26T21:27:45.379Z,12.84
2023-03-26T21:30:14.632Z,12.68
2023-03-26T21:32:37.744Z,12.45
2023-03-26T21:35:00.628Z,12.30
2023-03-26T21:37:23.506Z,12.20
2023-03-26T21:39:46.608Z,12.10
2023-03-26T21:42:11.697Z,12.06
2023-03-26T21:44:34.779Z,12.03
2023-03-26T21:46:57.618Z,11.97
2023-03-26T21:49:20.827Z,11.90
2023-03-26T21:51:44.653Z,11.82
2023-03-26T21:54:33.457Z,11.78
2023-03-26T21:57:12.253Z,11.85
2023-03-26T21:59:56.705Z,11.89
2023-03-26T22:02:42.388Z,11.86
2023-03-26T22:05:14.652Z,11.76
2023-03-26T22:08:00.135Z,11.61
2023-03-26T22:10:23.454Z,11.65
2023-03-26T22:12:46.183Z,11.55
2023-03-26T22:15:09.267Z,11.50
2023-03-26T22:17:32.822Z,11.45
2023-03-26T22:19:56.441Z,11.35
2023-03-26T22:22:19.352Z,11.17
2023-03-26T22:24:43.301Z,11.08
2023-03-26T22:27:07.296Z,11.18
2023-03-26T22:29:31.693Z,11.14
2023-03-26T22:31:54.635Z,11.13
2023-03-26T22:34:17.822Z,11.13
2023-03-26T22:36:40.571Z,11.03
2023-03-26T22:39:04.412Z,10.84
2023-03-26T22:41:27.495Z,10.95
2023-03-26T22:43:53.241Z,10.97
2023-03-26T22:46:16.184Z,10.88
2023-03-26T22:48:40.767Z,11.06
2023-03-26T22:51:06.419Z,11.11
2023-03-26T22:53:29.683Z,11.14
2023-03-26T22:55:52.311Z,11.07
2023-03-26T22:58:15.242Z,10.90
2023-03-26T23:00:40.000Z,10.86
2023-03-26T23:03:02.787Z,10.96
2023-03-26T23:05:25.888Z,10.97
2023-03-26T23:07:49.069Z,10.97
2023-03-26T23:10:12.997Z,10.89
2023-03-26T23:12:37.876Z,10.73
2023-03-26T23:15:05.035Z,10.81
2023-03-26T23:17:27.733Z,10.72
2023-03-26T23:19:50.765Z,10.80
2023-03-26T23:22:13.585Z,10.84
2023-03-26T23:24:37.904Z,10.76
2023-03-26T23:27:00.944Z,10.80
2023-03-26T23:29:23.836Z,10.66
2023-03-26T23:31:47.122Z,10.66
2023-03-26T23:34:11.004Z,10.61
2023-03-26T23:36:34.232Z,10.55
2023-03-26T23:38:56.993Z,10.46
2023-03-26T23:41:22.198Z,10.35
2023-03-26T23:43:54.521Z,10.30
2023-03-26T23:46:18.076Z,10.51
2023-03-26T23:48:42.249Z,10.55
2023-03-26T23:51:05.057Z,10.41
2023-03-26T23:53:34.900Z,10.51
2023-03-26T23:55:58.109Z,10.58
2023-03-26T23:58:23.118Z,10.65
